Time;durP1;ratioP1;P1;durP2;ratioP2;P2;SDS_P1;SDS_P2;PMS_P1;PMS_P2;Temp;Humidity;BMP_temperature;BMP_pressure;BME280_temperature;BME280_humidity;BME280_pressure;Samples;Min_cycle;Max_cycle;Signal;HPM_P1;HPM_P2
2021/07/16 00:02:06;;;;;;;14.80;13.33;;;;;;;22.85;83.10;100270.58;1834842;76;20993;-71
2021/07/16 00:04:32;;;;;;;15.73;14.23;;;;;;;22.82;83.17;100270.70;1835318;76;20965;-71
2021/07/16 00:06:59;;;;;;;15.27;13.77;;;;;;;22.80;83.24;100273.53;1831777;77;21131;-72
2021/07/16 00:09:28;;;;;;;16.37;13.07;;;;;;;22.76;83.24;100269.92;1829348;76;21522;-72
2021/07/16 00:11:56;;;;;;;14.73;13.33;;;;;;;22.71;83.36;100273.12;1819783;77;21082;-71
2021/07/16 00:14:23;;;;;;;15.83;14.40;;;;;;;22.66;83.49;100266.55;1831764;77;21074;-72
2021/07/16 00:16:52;;;;;;;16.33;14.73;;;;;;;22.59;83.49;100262.27;1843971;76;21553;-73
2021/07/16 00:19:18;;;;;;;16.93;15.13;;;;;;;22.54;83.54;100269.33;1848162;76;21172;-73
2021/07/16 00:21:45;;;;;;;19.73;14.47;;;;;;;22.51;83.54;100265.11;1845739;77;21585;-74
2021/07/16 00:24:12;;;;;;;15.77;14.10;;;;;;;22.48;83.50;100257.09;1838695;76;21027;-71
2021/07/16 00:26:39;;;;;;;16.43;14.80;;;;;;;22.44;83.50;100256.98;1843315;77;21522;-71
2021/07/16 00:29:07;;;;;;;16.63;14.83;;;;;;;22.38;83.46;100267.09;1810634;77;21667;-71
2021/07/16 00:31:37;;;;;;;17.03;14.57;;;;;;;22.33;83.48;100270.04;1833964;77;21490;-71
2021/07/16 00:34:04;;;;;;;18.37;14.93;;;;;;;22.29;83.52;100263.70;1836830;77;22057;-71
2021/07/16 00:36:31;;;;;;;15.80;14.20;;;;;;;22.25;83.61;100273.12;1833763;76;20991;-70
2021/07/16 00:38:57;;;;;;;15.93;14.23;;;;;;;22.22;83.64;100269.73;1870902;76;21041;-70
2021/07/16 00:41:24;;;;;;;20.47;15.63;;;;;;;22.20;83.67;100271.98;1825341;77;21089;-72
2021/07/16 00:43:50;;;;;;;16.50;14.47;;;;;;;22.17;83.78;100273.45;1835133;76;21125;-71
2021/07/16 00:46:17;;;;;;;16.73;14.40;;;;;;;22.14;83.87;100270.02;1834684;77;20989;-72
2021/07/16 00:48:43;;;;;;;16.27;14.67;;;;;;;22.11;83.97;100274.81;1832827;76;20999;-70
2021/07/16 00:51:11;;;;;;;15.67;14.00;;;;;;;22.09;84.24;100272.99;1825452;77;21034;-71
2021/07/16 00:53:38;;;;;;;17.03;15.37;;;;;;;22.05;84.81;100270.73;1839346;77;21171;-72
2021/07/16 00:56:06;;;;;;;17.57;15.87;;;;;;;22.01;85.27;100269.27;1837373;76;21510;-71
2021/07/16 00:58:33;;;;;;;17.80;15.87;;;;;;;21.99;85.61;100261.22;1845824;76;20880;-71
2021/07/16 01:01:02;;;;;;;17.93;16.03;;;;;;;21.98;85.85;100264.50;1844454;76;21125;-70
2021/07/16 01:03:29;;;;;;;17.83;15.80;;;;;;;21.97;85.96;100260.18;1839559;76;20998;-71
2021/07/16 01:05:56;;;;;;;15.83;14.33;;;;;;;21.99;85.96;100254.42;1835944;76;20975;-72
2021/07/16 01:08:24;;;;;;;15.70;14.30;;;;;;;22.00;86.02;100258.71;1835224;76;21055;-71
2021/07/16 01:10:52;;;;;;;16.87;15.27;;;;;;;22.00;86.02;100254.63;1834577;77;20991;-71
2021/07/16 01:13:19;;;;;;;16.43;14.80;;;;;;;22.00;86.00;100257.35;1831521;76;21669;-71
2021/07/16 01:15:46;;;;;;;16.53;14.87;;;;;;;21.99;85.89;100253.84;1829162;77;21656;-71
2021/07/16 01:18:14;;;;;;;17.20;15.40;;;;;;;21.96;85.74;100255.89;1800502;79;21481;-70
2021/07/16 01:20:41;;;;;;;16.43;14.73;;;;;;;21.94;85.54;100261.43;1841381;76;21140;-72
2021/07/16 01:23:23;;;;;;;15.50;14.00;;;;;;;21.93;85.35;100261.22;1838987;76;21062;-71
2021/07/16 01:25:52;;;;;;;15.50;14.00;;;;;;;21.92;85.24;100261.00;1842211;77;21482;-70
2021/07/16 01:28:19;;;;;;;14.97;13.57;;;;;;;21.92;85.17;100251.48;1834665;77;21066;-71
2021/07/16 01:30:46;;;;;;;17.20;13.63;;;;;;;21.92;85.24;100248.77;1834006;76;21641;-71
2021/07/16 01:33:13;;;;;;;14.57;13.07;;;;;;;21.89;84.86;100247.51;1840074;76;21118;-70
2021/07/16 01:35:40;;;;;;;14.80;13.40;;;;;;;21.90;84.18;100248.30;1837617;76;21012;-71
2021/07/16 01:38:06;;;;;;;13.63;12.10;;;;;;;21.91;83.68;100251.23;1832934;76;21098;-71
2021/07/16 01:40:36;;;;;;;13.33;12.13;;;;;;;21.94;83.32;100242.39;1832651;76;21521;-71
2021/07/16 01:43:02;;;;;;;14.07;12.73;;;;;;;21.97;82.87;100236.28;1833848;76;21123;-72
2021/07/16 01:45:33;;;;;;;13.67;12.37;;;;;;;22.00;82.57;100234.23;1834096;77;21144;-72
2021/07/16 01:48:15;;;;;;;13.97;12.57;;;;;;;22.03;82.14;100224.61;1836212;76;21010;-72
2021/07/16 01:50:45;;;;;;;14.70;11.93;;;;;;;22.04;81.87;100218.81;1836150;76;21576;-71
2021/07/16 01:53:15;;;;;;;13.28;11.90;;;;;;;22.05;81.37;100214.98;1832807;76;21105;-71
2021/07/16 01:55:42;;;;;;;12.23;11.03;;;;;;;22.06;80.78;100212.48;1836599;76;21077;-72
2021/07/16 01:58:11;;;;;;;13.10;11.57;;;;;;;22.08;80.12;100207.50;1835767;77;21151;-71
2021/07/16 02:00:47;;;;;;;12.90;11.60;;;;;;;22.10;79.29;100213.37;1837597;77;21113;-71
2021/07/16 02:03:15;;;;;;;13.63;11.93;;;;;;;22.14;78.79;100212.11;1838072;77;22141;-72
2021/07/16 02:05:45;;;;;;;12.60;11.37;;;;;;;22.16;78.26;100214.75;1841197;76;21045;-71
2021/07/16 02:08:20;;;;;;;13.57;12.00;;;;;;;22.19;77.97;100211.34;1842826;76;21050;-71
2021/07/16 02:10:54;;;;;;;13.50;12.13;;;;;;;22.22;77.50;100218.04;1844859;76;21028;-71
2021/07/16 02:13:23;;;;;;;15.10;12.60;;;;;;;22.24;77.95;100214.39;1848331;77;21106;-72
2021/07/16 02:15:52;;;;;;;15.27;13.67;;;;;;;22.24;78.88;100209.77;1831562;77;21086;-72
2021/07/16 02:18:21;;;;;;;13.97;12.67;;;;;;;22.24;79.55;100211.66;1829326;76;21185;-72
2021/07/16 02:20:48;;;;;;;13.67;12.37;;;;;;;22.24;80.18;100205.68;1806532;77;21002;-71
2021/07/16 02:23:23;;;;;;;14.30;12.63;;;;;;;22.24;80.40;100201.60;1867891;76;21015;-71
2021/07/16 02:25:51;;;;;;;16.67;12.60;;;;;;;22.25;80.40;100196.95;1777651;79;21741;-71
2021/07/16 02:28:29;;;;;;;15.27;12.60;;;;;;;22.27;80.37;100200.67;1767496;81;21625;-71
2021/07/16 02:31:06;;;;;;;12.67;11.20;;;;;;;22.25;80.32;100196.95;1755223;79;21027;-73
2021/07/16 02:33:33;;;;;;;12.90;11.13;;;;;;;22.24;80.14;100193.98;1797711;79;21071;-72
2021/07/16 02:36:02;;;;;;;13.47;11.30;;;;;;;22.22;79.62;100191.62;1830226;77;21431;-71
2021/07/16 02:38:29;;;;;;;11.93;10.73;;;;;;;22.23;78.96;100195.92;1840299;77;21600;-71
2021/07/16 02:40:56;;;;;;;13.03;11.10;;;;;;;22.24;78.25;100196.70;1837136;77;21093;-73
2021/07/16 02:43:23;;;;;;;11.83;10.60;;;;;;;22.27;77.27;100197.95;1844915;77;21624;-70
2021/07/16 02:45:50;;;;;;;11.23;10.07;;;;;;;22.32;76.63;100197.72;1837664;77;21055;-71
2021/07/16 02:48:19;;;;;;;12.30;10.70;;;;;;;22.37;75.82;100196.89;1827712;76;21081;-71
2021/07/16 02:50:47;;;;;;;13.13;11.67;;;;;;;22.43;75.43;100204.25;1845220;77;21038;-72
2021/07/16 02:53:16;;;;;;;12.50;11.17;;;;;;;22.49;76.05;100196.07;1822733;76;21141;-72
2021/07/16 02:55:43;;;;;;;12.83;11.13;;;;;;;22.54;76.62;100199.92;1841308;76;21541;-72
2021/07/16 02:58:11;;;;;;;12.43;11.27;;;;;;;22.60;77.01;100208.61;1839116;76;21118;-70
2021/07/16 03:00:38;;;;;;;11.67;10.57;;;;;;;22.65;77.45;100199.63;1820575;77;21139;-73
2021/07/16 03:03:05;;;;;;;11.43;10.20;;;;;;;22.68;77.44;100203.60;1845049;76;21019;-72
2021/07/16 03:05:35;;;;;;;12.83;11.17;;;;;;;22.73;77.13;100205.27;1801575;78;21086;-72
2021/07/16 03:08:04;;;;;;;12.17;11.07;;;;;;;22.79;76.48;100202.52;1835612;77;21462;-71
2021/07/16 03:10:38;;;;;;;12.67;11.40;;;;;;;22.85;77.18;100208.73;1846808;77;20931;-72
2021/07/16 03:13:09;;;;;;;13.50;12.10;;;;;;;22.87;77.99;100221.44;1838240;77;21088;-71
2021/07/16 03:15:36;;;;;;;14.07;11.87;;;;;;;22.85;78.54;100217.47;1828366;76;21116;-71
2021/07/16 03:18:05;;;;;;;14.03;12.23;;;;;;;22.85;78.81;100210.09;1842523;76;21118;-71
2021/07/16 03:20:37;;;;;;;14.23;12.90;;;;;;;22.92;79.04;100212.22;1839371;76;20960;-71
2021/07/16 03:23:06;;;;;;;15.83;12.43;;;;;;;22.95;79.35;100214.27;1829794;77;21078;-71
2021/07/16 03:25:35;;;;;;;14.07;12.27;;;;;;;22.99;79.47;100217.88;1838547;76;21110;-71
2021/07/16 03:28:07;;;;;;;13.60;12.13;;;;;;;23.07;79.62;100221.02;1836903;77;21074;-70
2021/07/16 03:30:34;;;;;;;12.43;11.13;;;;;;;23.15;79.52;100226.86;1816374;77;21009;-70
2021/07/16 03:33:00;;;;;;;13.30;11.80;;;;;;;23.24;79.38;100220.47;1840810;76;20992;-70
2021/07/16 03:35:31;;;;;;;13.97;11.90;;;;;;;23.35;79.19;100224.25;1796266;78;21008;-70
2021/07/16 03:37:59;;;;;;;13.77;12.27;;;;;;;23.45;78.69;100225.66;1839200;76;21955;-71
2021/07/16 03:40:28;;;;;;;13.17;11.63;;;;;;;23.54;78.31;100227.06;1839661;76;21497;-71
2021/07/16 03:42:56;;;;;;;12.47;11.10;;;;;;;23.64;77.98;100230.62;1834751;77;21046;-71
2021/07/16 03:45:23;;;;;;;13.33;10.90;;;;;;;23.73;77.38;100231.05;1836355;77;21606;-71
2021/07/16 03:47:50;;;;;;;12.40;10.73;;;;;;;23.82;76.56;100222.09;1837341;77;21136;-73
2021/07/16 03:50:20;;;;;;;11.87;10.50;;;;;;;23.92;76.04;100226.99;1833553;77;21083;-71
2021/07/16 03:52:47;;;;;;;12.43;10.68;;;;;;;24.00;75.37;100230.69;1843305;76;21692;-71
2021/07/16 03:55:14;;;;;;;11.33;10.30;;;;;;;24.09;75.00;100231.30;1860238;76;21565;-72
2021/07/16 03:57:45;;;;;;;10.87;9.63;;;;;;;24.22;74.73;100234.67;1832640;76;21003;-72
2021/07/16 04:00:15;;;;;;;10.32;9.33;;;;;;;24.32;73.89;100233.55;1837786;77;21611;-71
2021/07/16 04:02:43;;;;;;;11.80;9.10;;;;;;;24.44;72.91;100235.38;1828491;77;21037;-70
2021/07/16 04:05:11;;;;;;;9.00;8.10;;;;;;;24.53;71.77;100234.59;1839060;77;21462;-71
2021/07/16 04:07:45;;;;;;;10.13;9.07;;;;;;;24.63;70.18;100248.83;1833742;76;21030;-73
2021/07/16 04:10:09;;;;;;;11.40;8.67;;;;;;;24.70;69.16;100242.14;1835359;77;21490;-72
2021/07/16 04:12:38;;;;;;;10.13;8.13;;;;;;;24.79;68.99;100246.23;1844535;77;20983;-72
2021/07/16 04:15:06;;;;;;;9.53;8.30;;;;;;;24.89;68.16;100250.90;1836629;77;21104;-68
2021/07/16 04:17:34;;;;;;;9.23;8.17;;;;;;;25.01;67.67;100241.97;1832033;76;21182;-72
2021/07/16 04:20:02;;;;;;;10.73;8.40;;;;;;;25.14;66.65;100245.36;1807791;77;21428;-71
2021/07/16 04:22:29;;;;;;;9.47;7.90;;;;;;;25.24;65.68;100242.61;1840459;77;21006;-71
2021/07/16 04:24:56;;;;;;;9.97;8.43;;;;;;;25.34;65.07;100244.73;1829876;76;20971;-71
2021/07/16 04:27:23;;;;;;;11.83;7.80;;;;;;;25.44;64.56;100246.86;1826041;76;21931;-71
2021/07/16 04:29:49;;;;;;;8.30;7.50;;;;;;;25.52;64.11;100242.28;1838675;77;20964;-72
2021/07/16 04:32:16;;;;;;;9.13;7.13;;;;;;;25.58;62.91;100243.56;1837753;76;20991;-71
2021/07/16 04:34:43;;;;;;;9.60;7.57;;;;;;;25.64;62.18;100242.69;1825706;77;21462;-71
2021/07/16 04:37:10;;;;;;;12.83;8.37;;;;;;;25.67;61.84;100241.37;1830534;77;21057;-71
2021/07/16 04:39:37;;;;;;;10.43;7.53;;;;;;;25.75;61.59;100236.79;1845874;77;21535;-72
2021/07/16 04:42:04;;;;;;;11.37;7.80;;;;;;;25.82;61.21;100246.50;1841975;77;21147;-72
2021/07/16 04:44:31;;;;;;;9.70;7.40;;;;;;;25.89;60.52;100241.71;1832361;77;21439;-70
2021/07/16 04:46:59;;;;;;;8.73;7.27;;;;;;;25.94;60.40;100247.66;1841340;77;21066;-71
2021/07/16 04:49:25;;;;;;;9.20;8.13;;;;;;;26.00;60.64;100251.47;1830916;76;20994;-70
2021/07/16 04:51:53;;;;;;;8.87;7.97;;;;;;;26.11;60.44;100254.55;1830968;77;21174;-72
2021/07/16 04:54:19;;;;;;;8.40;7.07;;;;;;;26.20;60.54;100263.30;1837345;77;21431;-70
2021/07/16 04:56:46;;;;;;;10.40;7.70;;;;;;;26.32;60.69;100260.89;1847506;77;20932;-70
2021/07/16 04:59:13;;;;;;;11.80;7.90;;;;;;;26.44;60.74;100260.67;1837718;76;21043;-72
2021/07/16 05:01:41;;;;;;;11.33;7.43;;;;;;;26.57;60.17;100267.31;1838238;77;21100;-71
2021/07/16 05:04:08;;;;;;;9.97;7.50;;;;;;;26.71;59.62;100267.48;1831280;77;21119;-72
2021/07/16 05:06:34;;;;;;;11.27;7.30;;;;;;;26.83;59.13;100265.87;1835074;77;21488;-71
2021/07/16 05:09:01;;;;;;;11.90;7.80;;;;;;;26.95;58.82;100264.02;1833622;76;21149;-71
2021/07/16 05:11:28;;;;;;;10.77;7.23;;;;;;;27.06;58.43;100264.94;1835664;76;21029;-71
2021/07/16 05:13:55;;;;;;;8.77;7.70;;;;;;;27.15;57.86;100255.05;1847746;76;20968;-70
2021/07/16 05:16:21;;;;;;;10.47;7.60;;;;;;;27.24;57.21;100257.70;1849022;77;21882;-71
2021/07/16 05:18:49;;;;;;;10.47;7.17;;;;;;;27.33;57.37;100254.66;1835391;76;20984;-71
2021/07/16 05:21:16;;;;;;;9.10;6.90;;;;;;;27.44;57.44;100253.38;1834398;76;21169;-71
2021/07/16 05:23:43;;;;;;;10.63;7.47;;;;;;;27.52;57.21;100249.53;1833160;76;20976;-72
2021/07/16 05:26:10;;;;;;;12.03;7.73;;;;;;;27.62;55.75;100241.97;1829653;77;21038;-69
2021/07/16 05:28:37;;;;;;;11.00;7.53;;;;;;;27.72;55.10;100249.49;1828118;77;21760;-71
2021/07/16 05:31:05;;;;;;;10.07;7.20;;;;;;;27.85;54.52;100250.01;1843912;77;20979;-71
2021/07/16 05:33:32;;;;;;;14.37;7.70;;;;;;;27.95;53.89;100247.13;1843030;77;21111;-71
2021/07/16 05:35:58;;;;;;;11.43;7.67;;;;;;;28.03;53.04;100246.77;1842734;77;20987;-70
2021/07/16 05:38:25;;;;;;;10.97;7.53;;;;;;;28.12;52.60;100249.78;1825605;76;21001;-71
2021/07/16 05:40:52;;;;;;;9.20;6.80;;;;;;;28.22;52.21;100242.97;1837670;77;21110;-70
2021/07/16 05:43:19;;;;;;;9.07;7.17;;;;;;;28.33;51.93;100244.98;1838319;76;20992;-72
2021/07/16 05:45:46;;;;;;;11.53;6.83;;;;;;;28.44;52.16;100251.36;1842986;77;21023;-72
2021/07/16 05:48:13;;;;;;;10.77;6.77;;;;;;;28.52;51.40;100249.61;1841520;77;20991;-70
2021/07/16 05:50:43;;;;;;;9.90;7.07;;;;;;;28.58;49.20;100250.03;1835403;77;20999;-72
2021/07/16 05:53:10;;;;;;;10.83;6.70;;;;;;;28.64;48.67;100247.11;1830295;77;21093;-72
2021/07/16 05:55:36;;;;;;;8.37;6.63;;;;;;;28.71;47.67;100251.25;1836205;77;21438;-71
2021/07/16 05:58:04;;;;;;;10.70;6.97;;;;;;;28.77;47.37;100250.30;1823870;77;21040;-71
2021/07/16 06:00:31;;;;;;;8.20;6.70;;;;;;;28.83;47.25;100249.34;1835503;76;20992;-70
2021/07/16 06:02:59;;;;;;;10.77;7.63;;;;;;;28.90;47.56;100250.14;1850450;76;21075;-72
2021/07/16 06:05:26;;;;;;;10.03;7.27;;;;;;;28.97;46.85;100249.36;1841569;76;21551;-71
2021/07/16 06:07:53;;;;;;;9.80;7.10;;;;;;;29.05;46.37;100257.06;1830211;77;20966;-72
2021/07/16 06:10:21;;;;;;;9.87;7.63;;;;;;;29.12;46.58;100248.25;1833929;77;21062;-71
2021/07/16 06:12:48;;;;;;;11.70;7.50;;;;;;;29.20;46.14;100243.54;1840236;76;21537;-71
2021/07/16 06:15:15;;;;;;;9.53;7.60;;;;;;;29.25;46.34;100243.13;1838372;76;20943;-70
2021/07/16 06:17:43;;;;;;;11.27;7.73;;;;;;;29.36;46.61;100243.16;1848763;77;20972;-71
2021/07/16 06:20:11;;;;;;;9.73;7.53;;;;;;;29.47;46.29;100242.56;1839932;77;21094;-71
2021/07/16 06:22:38;;;;;;;12.33;8.17;;;;;;;29.57;45.88;100245.13;1835364;77;20998;-71
2021/07/16 06:25:06;;;;;;;11.37;7.73;;;;;;;29.64;45.19;100241.80;1835726;76;20967;-73
2021/07/16 06:27:33;;;;;;;9.93;7.50;;;;;;;29.69;45.34;100248.89;1819524;77;20999;-72
2021/07/16 06:30:00;;;;;;;9.77;7.70;;;;;;;29.72;45.13;100248.69;1822146;77;21042;-74
2021/07/16 06:32:27;;;;;;;10.93;8.03;;;;;;;29.77;45.64;100245.52;1836649;76;21054;-74
2021/07/16 06:34:54;;;;;;;12.77;8.77;;;;;;;29.84;45.15;100245.52;1824399;77;20983;-72
2021/07/16 06:37:21;;;;;;;12.37;8.70;;;;;;;29.84;45.04;100239.41;1830972;77;22629;-73
2021/07/16 06:39:48;;;;;;;14.58;8.93;;;;;;;29.85;45.51;100238.84;1824776;77;21130;-75
2021/07/16 06:42:14;;;;;;;11.53;8.68;;;;;;;29.87;45.56;100241.97;1833105;77;21133;-74
2021/07/16 06:44:43;;;;;;;11.43;8.93;;;;;;;29.93;45.45;100248.65;1838246;76;20913;-73
2021/07/16 06:47:11;;;;;;;11.33;9.23;;;;;;;29.96;45.71;100244.33;1824168;76;20995;-75
2021/07/16 06:49:40;;;;;;;11.18;9.30;;;;;;;30.01;45.59;100248.03;1827463;77;21056;-73
2021/07/16 06:52:08;;;;;;;11.10;9.03;;;;;;;30.05;45.58;100248.23;1832648;77;21069;-74
2021/07/16 06:54:35;;;;;;;14.78;9.45;;;;;;;30.10;46.14;100247.81;1836597;76;21126;-75
2021/07/16 06:57:02;;;;;;;10.15;9.10;;;;;;;30.23;45.74;100247.42;1834774;77;21022;-75
2021/07/16 06:59:29;;;;;;;11.80;10.53;;;;;;;30.34;45.33;100249.56;1823168;77;21071;-73
2021/07/16 07:01:56;;;;;;;11.63;10.43;;;;;;;30.40;45.66;100250.70;1838359;76;21545;-74
2021/07/16 07:04:23;;;;;;;15.10;10.80;;;;;;;30.46;45.58;100246.95;1835785;76;21043;-71
2021/07/16 07:06:51;;;;;;;16.12;10.70;;;;;;;30.52;46.18;100239.24;1827567;77;21148;-73
2021/07/16 07:09:18;;;;;;;16.90;12.40;;;;;;;30.60;46.32;100242.17;1824897;76;21028;-74
2021/07/16 07:11:46;;;;;;;13.03;11.68;;;;;;;30.72;45.95;100242.30;1832981;77;21538;-72
2021/07/16 07:14:13;;;;;;;12.03;10.82;;;;;;;30.81;45.82;100237.75;1836391;77;21042;-72
2021/07/16 07:16:40;;;;;;;12.95;11.75;;;;;;;30.91;46.65;100243.02;1833632;77;21012;-73
2021/07/16 07:19:08;;;;;;;16.05;12.80;;;;;;;30.95;47.07;100239.64;1825548;77;21705;-74
2021/07/16 07:21:36;;;;;;;13.25;11.90;;;;;;;30.96;46.73;100241.20;1826602;77;20983;-74
2021/07/16 07:24:03;;;;;;;13.93;12.68;;;;;;;30.97;46.33;100254.59;1834900;76;20991;-72
2021/07/16 07:26:32;;;;;;;14.70;13.15;;;;;;;30.94;46.06;100255.41;1836619;76;21027;-72
2021/07/16 07:28:59;;;;;;;14.43;12.93;;;;;;;30.92;46.50;100248.12;1821330;77;21058;-73
2021/07/16 07:31:26;;;;;;;15.00;13.40;;;;;;;30.95;47.97;100250.07;1830751;76;21110;-73
2021/07/16 07:33:53;;;;;;;16.05;13.40;;;;;;;31.00;47.37;100250.26;1839806;77;21025;-72
2021/07/16 07:36:20;;;;;;;26.77;13.95;;;;;;;31.07;47.25;100254.34;1827458;76;20948;-74
2021/07/16 07:38:48;;;;;;;15.13;13.53;;;;;;;31.05;47.13;100254.73;1823338;76;21058;-73
2021/07/16 07:41:15;;;;;;;13.30;11.93;;;;;;;30.96;47.15;100262.66;1832569;76;21419;-74
2021/07/16 07:43:42;;;;;;;13.05;11.78;;;;;;;30.93;47.56;100267.63;1839821;77;21159;-73
2021/07/16 07:46:09;;;;;;;13.70;12.33;;;;;;;31.01;48.51;100265.01;1845863;76;20984;-73
2021/07/16 07:48:35;;;;;;;13.45;11.97;;;;;;;31.03;47.63;100262.64;1835630;76;20948;-73
2021/07/16 07:51:02;;;;;;;15.30;13.80;;;;;;;31.10;48.44;100263.77;1841665;76;20992;-73
2021/07/16 07:53:29;;;;;;;16.62;13.05;;;;;;;31.12;47.42;100258.64;1837386;77;21058;-72
2021/07/16 07:55:56;;;;;;;13.70;12.40;;;;;;;31.14;47.01;100262.56;1823970;77;21501;-74
2021/07/16 07:58:23;;;;;;;14.40;12.35;;;;;;;31.15;48.36;100259.98;1825508;76;21070;-74
2021/07/16 08:00:54;;;;;;;14.15;12.85;;;;;;;31.17;48.32;100262.36;1826248;77;21086;-73
2021/07/16 08:03:21;;;;;;;13.80;12.35;;;;;;;31.20;47.66;100269.23;1834772;76;21004;-73
2021/07/16 08:05:48;;;;;;;14.00;12.53;;;;;;;31.21;48.25;100264.49;1825329;77;21077;-73
2021/07/16 08:08:15;;;;;;;16.90;12.55;;;;;;;31.28;47.77;100269.95;1825562;76;21774;-73
2021/07/16 08:10:43;;;;;;;14.85;12.68;;;;;;;31.31;48.66;100272.69;1788477;79;21004;-73
2021/07/16 08:13:10;;;;;;;13.95;12.18;;;;;;;31.37;48.62;100270.91;1758069;81;21078;-70
2021/07/16 08:15:37;;;;;;;12.60;11.40;;;;;;;31.34;48.18;100268.97;1795412;78;21047;-73
2021/07/16 08:18:04;;;;;;;12.68;11.43;;;;;;;31.36;48.69;100267.37;1800604;79;21070;-73
2021/07/16 08:20:31;;;;;;;13.20;12.05;;;;;;;31.48;48.69;100268.84;1763940;78;21148;-72
2021/07/16 08:22:58;;;;;;;12.20;11.05;;;;;;;31.67;47.27;100261.98;1805982;78;21107;-73
2021/07/16 08:25:38;;;;;;;14.18;12.78;;;;;;;31.84;47.49;100262.41;1804555;78;21068;-74
2021/07/16 08:28:05;;;;;;;16.55;13.40;;;;;;;31.98;46.38;100267.03;1797122;78;21014;-74
2021/07/16 08:30:34;;;;;;;15.18;12.40;;;;;;;32.04;45.98;100264.61;1782963;78;21609;-74
2021/07/16 08:33:01;;;;;;;14.03;12.40;;;;;;;32.00;46.16;100267.42;1831529;76;21127;-74
2021/07/16 08:35:28;;;;;;;13.72;12.30;;;;;;;31.98;47.01;100265.65;1833536;77;21128;-73
2021/07/16 08:37:54;;;;;;;13.25;11.95;;;;;;;31.99;46.22;100268.63;1837734;77;21026;-75
2021/07/16 08:40:22;;;;;;;13.58;12.05;;;;;;;32.04;46.90;100267.37;1831726;77;21002;-72
2021/07/16 08:42:50;;;;;;;13.98;12.68;;;;;;;32.08;46.37;100266.13;1822699;77;21631;-73
2021/07/16 08:45:18;;;;;;;13.45;12.03;;;;;;;32.02;45.69;100269.75;1838762;76;21011;-74
2021/07/16 08:47:45;;;;;;;13.22;11.90;;;;;;;31.87;46.40;100267.12;1841550;76;21542;-73
2021/07/16 08:50:14;;;;;;;14.05;12.65;;;;;;;31.82;47.48;100270.34;1835224;76;21014;-75
2021/07/16 08:52:44;;;;;;;13.93;12.50;;;;;;;31.86;48.46;100271.08;1819654;77;21549;-73
2021/07/16 08:55:10;;;;;;;13.93;12.63;;;;;;;31.98;48.52;100275.32;1838807;76;21568;-74
2021/07/16 08:57:39;;;;;;;12.05;10.85;;;;;;;32.07;48.21;100270.70;1835377;77;21089;-73
2021/07/16 09:00:08;;;;;;;12.90;11.55;;;;;;;32.18;48.54;100274.13;1826033;77;21102;-73
2021/07/16 09:02:35;;;;;;;13.58;12.30;;;;;;;32.31;47.90;100268.85;1841388;76;21046;-72
2021/07/16 09:05:10;;;;;;;13.85;12.45;;;;;;;32.31;47.90;100268.85;1832926;76;21026;-73
2021/07/16 09:07:48;;;;;;;14.00;12.70;;;;;;;32.43;46.42;100266.36;1835593;76;21092;-73
2021/07/16 09:10:16;;;;;;;14.47;12.70;;;;;;;32.56;45.08;100269.97;1831242;77;21026;-75
2021/07/16 09:12:44;;;;;;;13.50;12.20;;;;;;;32.66;45.30;100271.21;1775240;77;22496;-73
2021/07/16 09:15:15;;;;;;;13.48;12.28;;;;;;;32.79;44.70;100264.52;1828059;76;21528;-76
2021/07/16 09:17:44;;;;;;;13.08;11.75;;;;;;;32.85;43.49;100270.38;1838307;76;21141;-74
2021/07/16 09:20:26;;;;;;;12.40;11.10;;;;;;;32.87;45.10;100264.63;1840197;76;21069;-74
2021/07/16 09:23:14;;;;;;;12.20;11.00;;;;;;;32.96;43.94;100271.61;1779066;79;21826;-76
2021/07/16 09:25:42;;;;;;;12.43;11.33;;;;;;;33.08;43.61;100262.78;1764251;80;21019;-74
2021/07/16 09:28:24;;;;;;;13.95;11.33;;;;;;;33.01;42.85;100262.88;1797205;78;21079;-72
2021/07/16 09:30:52;;;;;;;11.95;10.93;;;;;;;32.87;43.26;100261.86;1765689;79;21072;-72
2021/07/16 09:33:19;;;;;;;12.63;11.43;;;;;;;32.84;43.16;100266.84;1757454;80;21564;-75
2021/07/16 09:35:46;;;;;;;13.28;11.97;;;;;;;32.96;43.87;100261.35;1790157;79;21177;-75
2021/07/16 09:38:18;;;;;;;12.20;11.10;;;;;;;33.10;44.51;100263.13;1774391;80;21102;-79
2021/07/16 09:40:56;;;;;;;13.25;11.85;;;;;;;33.10;44.51;100263.13;1802170;77;21331;-73
2021/07/16 09:43:24;;;;;;;12.28;11.03;;;;;;;33.20;43.40;100257.24;1837955;77;21110;-73
2021/07/16 09:46:04;;;;;;;11.45;10.48;;;;;;;33.30;42.55;100259.05;1835645;76;21164;-74
2021/07/16 09:48:38;;;;;;;12.13;10.98;;;;;;;33.39;42.24;100257.92;1835006;76;21177;-73
2021/07/16 09:51:26;;;;;;;12.07;10.85;;;;;;;33.52;42.20;100253.38;1831508;77;21054;-73
2021/07/16 09:54:02;;;;;;;11.43;10.32;;;;;;;33.60;41.78;100248.52;1853304;76;21043;-72
2021/07/16 09:56:35;;;;;;;12.03;10.88;;;;;;;33.64;42.24;100247.86;1839718;77;21055;-72
2021/07/16 09:59:09;;;;;;;12.25;11.05;;;;;;;33.76;42.96;100243.09;1841240;76;21099;-72
2021/07/16 10:01:39;;;;;;;13.10;11.90;;;;;;;33.95;42.84;100240.76;1842470;77;21585;-73
2021/07/16 10:04:17;;;;;;;13.25;11.88;;;;;;;34.11;42.05;100239.48;1836492;76;21168;-72
2021/07/16 10:06:40;;;;;;;13.05;11.70;;;;;;;34.12;41.11;100241.04;1837339;77;21089;-73
2021/07/16 10:09:07;;;;;;;12.23;11.03;;;;;;;34.11;41.47;100243.64;1837994;76;21077;-74
2021/07/16 10:11:36;;;;;;;13.38;11.57;;;;;;;34.14;41.75;100245.56;1840391;77;21132;-73
2021/07/16 10:14:03;;;;;;;12.58;11.28;;;;;;;34.20;41.36;100241.09;1832434;77;21126;-74
2021/07/16 10:16:30;;;;;;;11.80;10.70;;;;;;;34.33;40.96;100239.84;1832661;77;21007;-74
2021/07/16 10:18:57;;;;;;;13.60;11.28;;;;;;;34.37;41.73;100236.39;1842388;76;21411;-73
2021/07/16 10:21:25;;;;;;;12.63;11.43;;;;;;;34.40;40.29;100239.69;1824736;77;21097;-72
2021/07/16 10:23:54;;;;;;;14.13;11.60;;;;;;;34.34;40.73;100244.78;1829218;76;21659;-73
2021/07/16 10:26:22;;;;;;;12.68;11.45;;;;;;;34.15;40.58;100236.03;1834372;76;21116;-73
2021/07/16 10:28:49;;;;;;;12.30;11.20;;;;;;;34.05;41.89;100234.25;1846527;76;20972;-72
2021/07/16 10:31:33;;;;;;;12.85;11.65;;;;;;;34.08;41.75;100234.19;1839688;77;20956;-73
2021/07/16 10:34:08;;;;;;;12.73;11.53;;;;;;;34.14;41.68;100233.09;1855786;76;21035;-73
2021/07/16 10:36:40;;;;;;;13.55;12.25;;;;;;;34.07;41.69;100233.23;1819353;76;21006;-73
2021/07/16 10:39:10;;;;;;;13.25;11.95;;;;;;;34.07;42.73;100238.78;1845650;76;21159;-74
2021/07/16 10:41:40;;;;;;;13.20;11.75;;;;;;;34.15;41.44;100234.64;1833489;77;20931;-73
2021/07/16 10:44:09;;;;;;;12.70;11.50;;;;;;;34.32;40.86;100232.72;1869701;76;21534;-74
2021/07/16 10:46:42;;;;;;;12.58;11.48;;;;;;;34.48;40.67;100222.28;1768398;79;21109;-75
2021/07/16 10:49:09;;;;;;;16.00;13.15;;;;;;;34.51;40.93;100216.66;1762831;81;21083;-75
2021/07/16 10:51:37;;;;;;;15.18;13.78;;;;;;;34.45;40.98;100218.98;1771472;80;21319;-73
2021/07/16 10:54:10;;;;;;;14.10;12.70;;;;;;;34.51;40.15;100209.73;1823706;76;21033;-75
2021/07/16 10:56:48;;;;;;;16.02;14.47;;;;;;;34.53;40.70;100214.89;1824819;76;33347;-73
2021/07/16 10:59:43;;;;;;;13.80;12.43;;;;;;;34.71;40.45;100211.09;1833232;77;21082;-73
2021/07/16 11:02:35;;;;;;;12.33;11.22;;;;;;;34.85;40.89;100200.88;1844007;77;20975;-76
2021/07/16 11:05:02;;;;;;;14.23;12.87;;;;;;;34.86;40.71;100201.08;1831162;77;21139;-73
2021/07/16 11:07:35;;;;;;;13.80;12.40;;;;;;;34.61;40.18;100201.64;1813890;77;20937;-74
2021/07/16 11:10:02;;;;;;;15.08;13.58;;;;;;;34.32;40.76;100196.67;1820718;77;21147;-74
2021/07/16 11:12:35;;;;;;;14.25;12.90;;;;;;;34.32;40.50;100200.84;1836729;76;21042;-73
2021/07/16 11:15:02;;;;;;;14.85;13.35;;;;;;;34.42;39.44;100196.27;1854931;76;21129;-73
2021/07/16 11:17:36;;;;;;;15.60;14.10;;;;;;;34.46;39.61;100201.94;1793247;78;21056;-72
2021/07/16 11:20:18;;;;;;;16.20;14.60;;;;;;;34.39;39.50;100202.09;1801113;79;21035;-76